Time;durP1;ratioP1;P1;durP2;ratioP2;P2;SDS_P1;SDS_P2;PMS_P1;PMS_P2;Temp;Humidity;BMP_temperature;BMP_pressure;BME280_temperature;BME280_humidity;BME280_pressure;Samples;Min_cycle;Max_cycle;Signal;HPM_P1;HPM_P2
2023/01/31 00:00:53;;;;;;;3.00;2.80;;;;;;;-14.65;75.51;100034.03;4927976;28;20551;-58
2023/01/31 00:03:24;;;;;;;3.10;2.70;;;;;;;-14.24;74.57;100034.75;4927730;28;20052;-57
2023/01/31 00:05:54;;;;;;;3.63;2.85;;;;;;;-13.92;74.22;100039.72;4936301;28;20063;-57
2023/01/31 00:08:26;;;;;;;3.08;2.50;;;;;;;-13.76;73.12;100040.91;4947433;28;20156;-58
2023/01/31 00:11:00;;;;;;;3.42;2.60;;;;;;;-13.89;72.16;99988.00;4947524;28;20047;-57
2023/01/31 00:13:34;;;;;;;5.70;2.90;;;;;;;-13.38;71.87;100040.38;4936843;28;20367;-58
2023/01/31 00:16:05;;;;;;;7.63;3.33;;;;;;;-13.18;71.07;100029.25;4946858;28;20119;-59
2023/01/31 00:18:36;;;;;;;6.18;3.33;;;;;;;-13.34;70.90;99974.50;4947110;28;20043;-58
2023/01/31 00:21:11;;;;;;;6.80;3.30;;;;;;;-12.81;70.39;100042.88;4946345;28;20096;-58
2023/01/31 00:23:44;;;;;;;8.15;3.67;;;;;;;-12.89;69.69;100018.81;4942088;28;21713;-60
2023/01/31 00:26:16;;;;;;;5.10;3.67;;;;;;;-12.73;68.74;100039.25;4939795;28;20048;-60
2023/01/31 00:28:48;;;;;;;3.50;2.60;;;;;;;-12.58;68.31;100043.63;4930782;28;20098;-59
2023/01/31 00:31:20;;;;;;;5.63;2.50;;;;;;;-12.38;65.49;100026.69;4930353;28;20048;-59
2023/01/31 00:33:53;;;;;;;6.60;3.20;;;;;;;-12.64;65.13;99941.78;4926401;28;20060;-61
2023/01/31 00:36:25;;;;;;;5.38;3.72;;;;;;;-12.02;64.66;100026.63;4930636;28;20048;-59
2023/01/31 00:38:59;;;;;;;7.18;4.00;;;;;;;-11.99;64.72;100001.63;4930456;28;20137;-60
2023/01/31 00:41:31;;;;;;;5.00;2.67;;;;;;;-12.22;64.19;99953.06;4930672;28;20048;-60
2023/01/31 00:44:01;;;;;;;3.78;2.78;;;;;;;-11.51;64.16;100034.28;4926979;28;20057;-60
2023/01/31 00:46:32;;;;;;;10.70;3.38;;;;;;;-11.37;63.64;100026.78;4930486;28;20598;-60
2023/01/31 00:49:05;;;;;;;4.10;2.50;;;;;;;-11.83;61.61;99946.44;4927042;28;20079;-60
2023/01/31 00:51:36;;;;;;;4.18;3.15;;;;;;;-11.16;61.59;100030.69;4926858;28;20048;-61
2023/01/31 00:54:08;;;;;;;2.70;2.42;;;;;;;-11.05;60.89;100021.34;4927181;28;20375;-61
2023/01/31 00:56:39;;;;;;;5.45;3.05;;;;;;;-10.79;59.51;100027.19;4927070;28;20052;-61
2023/01/31 00:59:09;;;;;;;6.25;3.90;;;;;;;-10.68;59.99;100023.72;4926828;28;20373;-59
2023/01/31 01:01:40;;;;;;;8.88;4.30;;;;;;;-10.72;59.77;99983.88;4931399;28;20165;-59
2023/01/31 01:04:11;;;;;;;4.97;3.25;;;;;;;-10.46;59.33;100011.66;4942893;28;20231;-61
2023/01/31 01:06:41;;;;;;;6.70;2.63;;;;;;;-10.60;56.14;100002.34;4950333;28;20663;-59
2023/01/31 01:09:13;;;;;;;2.97;2.38;;;;;;;-10.28;55.47;100021.13;4950007;28;20447;-61
2023/01/31 01:11:44;;;;;;;5.05;2.65;;;;;;;-10.37;56.36;100020.59;4948648;28;20048;-61
2023/01/31 01:14:15;;;;;;;6.38;2.63;;;;;;;-10.67;57.86;99980.00;4949148;28;20478;-59
2023/01/31 01:16:45;;;;;;;7.60;3.10;;;;;;;-10.15;59.64;100023.63;4941622;28;20515;-60
2023/01/31 01:19:18;;;;;;;4.60;3.03;;;;;;;-9.86;58.87;100014.41;4944763;28;20055;-61
2023/01/31 01:21:49;;;;;;;5.13;2.88;;;;;;;-9.60;58.17;100016.00;4945562;28;20056;-59
2023/01/31 01:24:21;;;;;;;3.78;2.60;;;;;;;-9.40;57.44;100024.78;4945295;28;20043;-61
2023/01/31 01:26:51;;;;;;;5.85;2.83;;;;;;;-9.44;56.94;100012.72;4909928;28;20057;-61
2023/01/31 01:29:22;;;;;;;4.50;3.03;;;;;;;-9.40;57.63;100017.19;4930628;28;20120;-61
2023/01/31 01:31:53;;;;;;;5.03;2.83;;;;;;;-9.37;56.33;100009.78;4929443;28;20131;-62
2023/01/31 01:34:23;;;;;;;5.10;2.75;;;;;;;-9.35;55.21;100005.69;4929047;28;20048;-61
2023/01/31 01:36:54;;;;;;;6.35;3.10;;;;;;;-9.31;54.40;99999.13;4928753;28;20056;-60
2023/01/31 01:39:28;;;;;;;5.40;2.88;;;;;;;-9.41;52.89;99983.44;4940077;28;20066;-61
2023/01/31 01:41:59;;;;;;;6.28;2.67;;;;;;;-9.10;52.89;99999.50;4947924;28;20150;-60
2023/01/31 01:44:51;;;;;;;5.72;3.10;;;;;;;-9.33;52.34;99925.69;4948012;28;20119;-61
2023/01/31 01:47:33;;;;;;;7.30;2.70;;;;;;;-8.90;51.71;99966.06;4924753;28;20083;-61
2023/01/31 01:50:11;;;;;;;11.45;4.40;;;;;;;-8.78;50.41;99981.94;4919182;28;20044;-62
2023/01/31 01:52:46;;;;;;;15.05;5.18;;;;;;;-8.72;50.57;99989.88;4919879;28;20117;-61
2023/01/31 01:55:24;;;;;;;7.47;3.20;;;;;;;-8.69;51.15;99987.50;4928305;28;20139;-60
2023/01/31 01:58:07;;;;;;;4.82;2.60;;;;;;;-8.66;51.35;99988.47;4921897;28;20401;-60
2023/01/31 02:00:38;;;;;;;5.00;2.50;;;;;;;-8.62;51.14;99985.31;4934554;28;20062;-61
2023/01/31 02:03:09;;;;;;;2.75;2.20;;;;;;;-8.62;51.42;99985.31;4944454;28;20051;-60
2023/01/31 02:05:46;;;;;;;6.10;3.05;;;;;;;-8.62;50.69;99995.47;4944367;28;20146;-61
2023/01/31 02:08:21;;;;;;;4.63;2.58;;;;;;;-8.56;50.86;99980.59;4933998;28;20059;-61
2023/01/31 02:10:57;;;;;;;3.55;2.33;;;;;;;-8.40;51.60;99975.59;4940569;28;20057;-62
2023/01/31 02:13:29;;;;;;;3.55;2.22;;;;;;;-8.29;50.78;99971.06;4944646;28;20051;-61
2023/01/31 02:15:59;;;;;;;5.88;2.53;;;;;;;-8.47;50.63;99970.97;4943762;28;20047;-61
2023/01/31 02:18:30;;;;;;;4.85;2.47;;;;;;;-8.45;50.64;99977.00;4944923;28;20466;-60
2023/01/31 02:21:32;;;;;;;4.82;2.25;;;;;;;-8.26;51.18;99967.03;4943409;28;20647;-62
2023/01/31 02:24:46;;;;;;;4.78;2.40;;;;;;;-8.05;51.42;99971.50;4916279;28;20356;-60
2023/01/31 02:27:52;;;;;;;4.40;2.40;;;;;;;-7.99;51.18;99976.88;4888703;28;20048;-61
2023/01/31 02:30:58;;;;;;;5.03;2.60;;;;;;;-7.77;51.30;99965.31;4923061;28;20386;-61
2023/01/31 02:33:37;;;;;;;3.67;2.20;;;;;;;-7.61;50.54;99970.41;4945950;28;20055;-58
2023/01/31 02:36:22;;;;;;;4.68;2.45;;;;;;;-7.48;50.66;99965.16;4937147;28;20390;-58
2023/01/31 02:39:08;;;;;;;6.22;2.33;;;;;;;-7.56;49.87;99968.97;4925209;28;20382;-59
2023/01/31 02:41:45;;;;;;;5.47;2.30;;;;;;;-7.52;49.63;99965.78;4934728;28;20059;-59
2023/01/31 02:47:25;;;;;;;6.22;2.47;;;;;;;-7.70;50.80;99959.78;4934750;28;20262;-60
2023/01/31 02:50:03;;;;;;;4.35;2.70;;;;;;;-8.04;51.80;99947.88;4933014;28;20098;-59
2023/01/31 02:52:43;;;;;;;3.38;2.63;;;;;;;-7.97;51.84;99970.22;4927779;28;20059;-60
2023/01/31 02:58:09;;;;;;;6.32;2.13;;;;;;;-7.75;51.57;99951.94;4925176;28;20325;-59
2023/01/31 03:00:43;;;;;;;5.85;2.60;;;;;;;-7.72;51.40;99941.06;4931382;28;20063;-61
2023/01/31 03:03:23;;;;;;;9.35;4.63;;;;;;;-8.06;53.04;99878.50;4915758;28;20203;-60
2023/01/31 03:06:53;;;;;;;9.70;3.97;;;;;;;-7.46;52.33;99930.59;4887205;28;20048;-62
2023/01/31 03:09:38;;;;;;;8.15;3.50;;;;;;;-7.14;52.56;99949.03;4885294;28;20055;-61
2023/01/31 03:12:42;;;;;;;6.35;2.97;;;;;;;-6.84;53.77;99943.72;4920537;28;20054;-60
2023/01/31 03:18:36;;;;;;;6.60;3.28;;;;;;;-6.62;52.36;99936.31;4916947;28;20755;-60
2023/01/31 03:21:13;;;;;;;12.68;3.17;;;;;;;-6.45;52.82;99934.56;4920689;28;20054;-62
2023/01/31 03:23:51;;;;;;;12.13;3.40;;;;;;;-6.39;51.74;99933.97;4920857;28;20035;-62
2023/01/31 03:26:27;;;;;;;12.80;3.50;;;;;;;-6.47;51.02;99925.13;4921643;28;20050;-63
2023/01/31 03:29:02;;;;;;;8.80;3.88;;;;;;;-6.46;50.94;99921.75;4931755;28;20043;-60
2023/01/31 03:31:39;;;;;;;17.25;4.72;;;;;;;-6.34;51.01;99928.31;4921855;28;20051;-61
2023/01/31 03:34:13;;;;;;;13.23;4.35;;;;;;;-6.24;51.58;99929.59;4933439;28;20061;-63
2023/01/31 03:36:52;;;;;;;14.25;3.50;;;;;;;-6.31;50.49;99914.88;4934542;28;20134;-61
2023/01/31 03:39:33;;;;;;;7.57;2.97;;;;;;;-6.47;50.06;99914.94;4921384;28;20064;-61
2023/01/31 03:42:08;;;;;;;5.82;3.08;;;;;;;-7.02;49.32;99898.84;4921228;28;20067;-63
2023/01/31 03:44:51;;;;;;;6.57;2.72;;;;;;;-7.01;49.81;99925.16;4934128;28;20112;-60
2023/01/31 03:47:26;;;;;;;5.43;2.88;;;;;;;-6.82;50.85;99916.72;4919712;28;20064;-61
2023/01/31 03:50:00;;;;;;;8.13;3.05;;;;;;;-6.43;51.86;99916.84;4934914;28;20379;-61
2023/01/31 03:52:36;;;;;;;5.55;2.67;;;;;;;-6.83;52.13;99818.47;4935084;28;20056;-60
2023/01/31 03:55:16;;;;;;;6.55;2.88;;;;;;;-5.94;52.60;99929.19;4924345;28;20062;-62
2023/01/31 03:57:52;;;;;;;4.43;1.97;;;;;;;-6.00;51.96;99906.91;4910443;28;20527;-60
2023/01/31 04:00:25;;;;;;;5.85;2.03;;;;;;;-6.14;51.52;99868.16;4922720;28;20277;-63
2023/01/31 04:03:04;;;;;;;6.13;2.40;;;;;;;-5.88;50.73;99919.28;4934345;28;20135;-61
2023/01/31 04:05:34;;;;;;;4.25;1.95;;;;;;;-5.83;51.28;99912.72;4923181;28;20139;-64
2023/01/31 04:08:06;;;;;;;5.43;2.28;;;;;;;-5.82;52.66;99890.69;4929948;28;20112;-60
2023/01/31 04:10:37;;;;;;;6.15;2.22;;;;;;;-5.76;51.40;99916.41;4908649;28;20052;-60
2023/01/31 04:13:09;;;;;;;4.63;2.15;;;;;;;-5.83;51.83;99912.72;4933274;28;20087;-60
2023/01/31 04:15:40;;;;;;;8.93;2.63;;;;;;;-5.69;53.14;99911.63;4932071;28;20096;-61
2023/01/31 04:18:13;;;;;;;8.95;2.03;;;;;;;-5.77;51.51;99915.50;4923184;28;20048;-63
2023/01/31 04:20:44;;;;;;;3.40;2.30;;;;;;;-5.78;53.49;99906.16;4918118;28;20069;-62
2023/01/31 04:23:14;;;;;;;7.20;2.30;;;;;;;-5.67;52.30;99904.91;4918118;28;20503;-61
2023/01/31 04:25:45;;;;;;;3.38;2.00;;;;;;;-5.88;51.32;99894.69;4916750;28;20106;-63
2023/01/31 04:28:17;;;;;;;5.32;2.40;;;;;;;-5.75;50.73;99911.34;4917509;28;20054;-61
2023/01/31 04:30:54;;;;;;;3.95;2.25;;;;;;;-5.78;50.25;99915.47;4919044;28;20063;-64
2023/01/31 04:33:25;;;;;;;5.60;2.35;;;;;;;-5.77;51.09;99912.09;4911052;28;20048;-61
2023/01/31 04:35:55;;;;;;;7.82;2.90;;;;;;;-5.79;50.92;99919.69;4919624;28;20055;-61
2023/01/31 04:38:26;;;;;;;5.45;2.13;;;;;;;-5.78;51.85;99911.22;4918187;28;20048;-63
2023/01/31 04:40:56;;;;;;;3.63;2.20;;;;;;;-5.87;50.92;99908.28;4917393;28;20138;-62
2023/01/31 04:43:29;;;;;;;4.50;2.40;;;;;;;-5.85;51.21;99914.31;4916961;28;20048;-64
2023/01/31 04:46:00;;;;;;;6.47;2.40;;;;;;;-5.85;51.21;99911.78;4916781;28;20048;-64
2023/01/31 04:48:30;;;;;;;4.28;2.13;;;;;;;-5.89;51.43;99912.44;4914482;28;20065;-64
2023/01/31 04:51:01;;;;;;;4.90;2.63;;;;;;;-6.32;51.94;99852.09;4922814;28;20057;-62
2023/01/31 04:53:32;;;;;;;6.32;2.80;;;;;;;-6.24;51.44;99868.56;4916087;28;20499;-65
2023/01/31 04:56:02;;;;;;;4.65;2.45;;;;;;;-5.88;52.32;99907.41;4913720;28;20048;-62
2023/01/31 04:58:35;;;;;;;5.75;2.78;;;;;;;-5.82;52.19;99904.25;4912164;28;20146;-61
2023/01/31 05:01:05;;;;;;;6.75;3.03;;;;;;;-5.73;52.23;99899.56;4911697;28;20043;-65
2023/01/31 05:03:36;;;;;;;7.30;2.92;;;;;;;-5.81;51.02;99911.09;4911816;28;20052;-62
2023/01/31 05:06:07;;;;;;;4.95;2.60;;;;;;;-5.78;51.83;99911.22;4912016;28;20142;-64
2023/01/31 05:08:38;;;;;;;5.85;2.28;;;;;;;-5.84;51.44;99916.06;4911478;28;20505;-63
2023/01/31 05:11:09;;;;;;;6.85;2.70;;;;;;;-5.81;51.92;99911.09;4912026;28;20048;-63
2023/01/31 05:13:42;;;;;;;7.85;3.10;;;;;;;-5.96;51.29;99916.44;4914694;28;20043;-64
2023/01/31 05:16:13;;;;;;;6.55;2.88;;;;;;;-6.13;50.78;99917.34;4903857;28;20053;-65
2023/01/31 05:18:43;;;;;;;6.00;2.90;;;;;;;-6.26;51.30;99900.69;4915915;28;20481;-63
2023/01/31 05:21:14;;;;;;;8.07;3.90;;;;;;;-6.10;52.36;99918.34;4916513;28;20052;-64
2023/01/31 05:23:44;;;;;;;7.88;3.50;;;;;;;-6.16;51.57;99913.00;4927347;28;20052;-64
2023/01/31 05:26:15;;;;;;;8.63;3.55;;;;;;;-6.18;51.63;99908.66;4904009;28;20048;-63
2023/01/31 05:28:47;;;;;;;8.40;3.60;;;;;;;-6.23;52.10;99911.00;4916453;28;20059;-64
2023/01/31 05:31:17;;;;;;;6.72;3.75;;;;;;;-6.17;52.86;99920.56;4912620;28;20376;-62
2023/01/31 05:33:48;;;;;;;12.60;5.85;;;;;;;-6.15;52.78;99908.78;4903546;28;20139;-62
2023/01/31 05:36:18;;;;;;;15.52;5.63;;;;;;;-6.12;52.11;99919.09;4922848;28;20067;-62
2023/01/31 05:38:49;;;;;;;14.57;6.20;;;;;;;-6.21;52.58;99922.09;4916721;28;20145;-62
2023/01/31 05:41:19;;;;;;;24.23;9.10;;;;;;;-6.34;52.67;99918.13;4909799;28;20071;-64
2023/01/31 05:43:52;;;;;;;20.70;8.00;;;;;;;-6.30;53.71;99924.22;4912199;28;20048;-64
2023/01/31 05:46:22;;;;;;;26.65;10.38;;;;;;;-6.48;53.62;99877.63;4906300;28;20846;-62
2023/01/31 05:48:53;;;;;;;29.65;9.23;;;;;;;-6.26;53.37;99936.28;4912454;28;20052;-63
2023/01/31 05:51:23;;;;;;;10.93;4.53;;;;;;;-6.24;52.96;99932.16;4910208;28;20048;-66
2023/01/31 05:53:54;;;;;;;8.73;4.18;;;;;;;-6.32;53.08;99936.84;4911437;28;20059;-64
2023/01/31 05:56:25;;;;;;;8.07;3.95;;;;;;;-6.27;53.56;99944.69;4909656;28;20052;-65
2023/01/31 05:58:57;;;;;;;10.75;3.50;;;;;;;-6.28;53.18;99942.09;4912311;28;20052;-65
2023/01/31 06:01:28;;;;;;;7.15;3.10;;;;;;;-6.43;52.19;99932.97;4909737;28;20045;-65
2023/01/31 06:03:59;;;;;;;12.57;5.60;;;;;;;-6.53;52.29;99944.38;4905937;28;20142;-64
2023/01/31 06:06:30;;;;;;;12.15;3.90;;;;;;;-6.60;53.07;99944.88;4912685;28;20174;-65
2023/01/31 06:09:00;;;;;;;7.32;3.88;;;;;;;-6.54;54.38;99945.19;4911068;28;20419;-63
2023/01/31 06:11:31;;;;;;;8.38;3.53;;;;;;;-6.49;54.27;99952.13;4917622;28;20054;-65
2023/01/31 06:14:03;;;;;;;5.68;3.97;;;;;;;-6.52;53.26;99958.81;4916476;28;20034;-63
2023/01/31 06:16:33;;;;;;;6.70;3.25;;;;;;;-6.57;53.40;99957.72;4910157;28;20051;-62
2023/01/31 06:19:04;;;;;;;6.10;2.60;;;;;;;-6.58;52.88;99957.66;4911122;28;20064;-64
2023/01/31 06:21:35;;;;;;;6.13;3.30;;;;;;;-6.56;53.59;99967.09;4910856;28;20071;-64
2023/01/31 06:24:06;;;;;;;9.80;3.30;;;;;;;-6.56;53.40;99962.03;4910487;28;20048;-65
2023/01/31 06:26:36;;;;;;;9.45;3.20;;;;;;;-6.68;52.35;99966.53;4911031;28;20044;-62
2023/01/31 06:29:09;;;;;;;4.03;2.47;;;;;;;-7.01;52.02;99969.19;4910224;28;20060;-64
2023/01/31 06:31:40;;;;;;;9.73;3.60;;;;;;;-7.40;52.81;99935.94;4909781;28;20411;-64
2023/01/31 06:34:13;;;;;;;5.47;2.70;;;;;;;-7.28;53.14;99965.28;4899570;28;20051;-65
2023/01/31 06:36:44;;;;;;;6.25;2.80;;;;;;;-7.44;53.93;99974.69;4910472;28;20055;-62
2023/01/31 06:39:15;;;;;;;9.52;3.22;;;;;;;-8.05;54.09;99900.50;4910364;28;20063;-64
2023/01/31 06:41:45;;;;;;;7.78;2.85;;;;;;;-7.74;54.06;99988.31;4909927;28;20106;-62
2023/01/31 06:44:17;;;;;;;6.38;3.15;;;;;;;-7.83;54.62;99984.50;4909635;28;20045;-61
2023/01/31 06:46:48;;;;;;;11.23;4.68;;;;;;;-7.94;55.17;99989.81;4915088;28;20057;-63
2023/01/31 06:49:18;;;;;;;12.02;5.50;;;;;;;-8.03;56.00;99985.13;4910822;28;20056;-61
2023/01/31 06:51:49;;;;;;;9.18;4.30;;;;;;;-8.30;56.39;99957.50;4909936;28;20145;-63
2023/01/31 06:54:19;;;;;;;9.65;4.30;;;;;;;-8.45;56.31;99954.19;4909746;28;20071;-61
2023/01/31 06:56:50;;;;;;;11.10;3.95;;;;;;;-8.28;57.66;99988.88;4910100;28;20052;-62
2023/01/31 06:59:22;;;;;;;13.63;5.35;;;;;;;-8.52;56.76;99977.44;4909428;28;20056;-63
2023/01/31 07:01:53;;;;;;;8.77;4.18;;;;;;;-8.46;57.56;99995.53;4913512;28;20125;-62
2023/01/31 07:04:23;;;;;;;8.63;3.80;;;;;;;-8.58;58.62;100002.44;4916502;28;20049;-61
2023/01/31 07:06:54;;;;;;;8.23;3.30;;;;;;;-8.71;59.27;100000.88;4913934;28;20086;-61
2023/01/31 07:09:24;;;;;;;10.20;4.18;;;;;;;-8.87;58.87;100006.75;4914057;28;20055;-63
2023/01/31 07:11:55;;;;;;;15.18;5.85;;;;;;;-9.01;58.65;100005.06;4914254;28;20330;-63
2023/01/31 07:14:27;;;;;;;17.55;8.38;;;;;;;-9.18;58.76;100011.72;4913433;28;20111;-63
2023/01/31 07:16:58;;;;;;;20.02;6.82;;;;;;;-9.86;58.80;99926.84;4957468;28;20037;-61
2023/01/31 07:19:31;;;;;;;14.73;7.82;;;;;;;-9.67;59.62;99989.47;4894056;28;20048;-60
2023/01/31 07:22:02;;;;;;;13.95;6.75;;;;;;;-9.69;60.44;100026.44;4905538;28;20060;-62
2023/01/31 07:24:32;;;;;;;13.57;6.32;;;;;;;-9.84;61.44;100020.44;4914414;28;20059;-63
2023/01/31 07:27:03;;;;;;;12.48;6.50;;;;;;;-10.03;62.10;100014.28;4924162;28;20075;-62
2023/01/31 07:29:35;;;;;;;8.13;4.65;;;;;;;-10.33;62.00;99987.16;4913362;28;20072;-63
2023/01/31 07:32:06;;;;;;;8.02;3.40;;;;;;;-10.18;62.81;100028.50;4913993;28;20142;-61
2023/01/31 07:34:37;;;;;;;12.05;4.95;;;;;;;-10.30;62.64;100036.22;4913490;28;20052;-61
2023/01/31 07:37:07;;;;;;;12.57;4.38;;;;;;;-10.39;62.65;100042.34;4917297;28;20047;-60
2023/01/31 07:39:38;;;;;;;10.70;4.22;;;;;;;-10.39;62.90;100038.16;4913455;28;20052;-61
2023/01/31 07:42:08;;;;;;;14.18;6.20;;;;;;;-10.53;63.08;100034.78;4912328;28;20114;-62
2023/01/31 07:44:40;;;;;;;20.02;8.80;;;;;;;-10.52;63.50;100045.75;4905541;28;20102;-61
2023/01/31 07:47:11;;;;;;;32.38;12.50;;;;;;;-10.59;63.88;100047.00;4909673;28;20494;-62
2023/01/31 07:49:41;;;;;;;61.05;19.73;;;;;;;-10.71;64.34;100048.75;4919653;28;20061;-61
2023/01/31 07:52:11;;;;;;;63.47;22.10;;;;;;;-10.88;64.03;100046.00;4917259;28;20086;-61
2023/01/31 07:54:42;;;;;;;54.22;18.42;;;;;;;-11.01;64.04;100053.53;4915238;28;20056;-60
2023/01/31 07:57:13;;;;;;;37.42;13.57;;;;;;;-11.09;64.56;100059.75;4914036;28;20129;-61
2023/01/31 07:59:48;;;;;;;33.58;12.13;;;;;;;-11.19;64.09;100062.44;4913077;28;21835;-61
2023/01/31 08:17:09;;;;;;;7.20;3.53;;;;;;;-12.94;63.63;100086.38;4603469;29;20135;-61
2023/01/31 08:19:40;;;;;;;3.22;2.67;;;;;;;-13.45;65.53;100098.47;4635599;29;20067;-61
2023/01/31 08:22:11;;;;;;;4.68;3.10;;;;;;;-13.95;66.72;100073.75;4642754;29;20124;-61
2023/01/31 08:24:43;;;;;;;19.60;7.63;;;;;;;-14.22;67.82;100092.59;4647569;29;20051;-60
2023/01/31 08:27:15;;;;;;;11.23;4.72;;;;;;;-14.47;69.06;100095.69;4643538;29;20062;-62
2023/01/31 08:29:46;;;;;;;8.48;3.88;;;;;;;-14.58;70.05;100096.47;4643355;29;20214;-60
2023/01/31 08:32:18;;;;;;;8.00;3.17;;;;;;;-14.63;71.19;100093.59;4643636;29;20063;-62
2023/01/31 08:34:50;;;;;;;3.88;2.85;;;;;;;-14.63;71.71;100093.59;4662647;29;20128;-60
2023/01/31 08:37:21;;;;;;;5.55;3.40;;;;;;;-14.63;71.93;100098.63;4642054;29;20064;-61
2023/01/31 08:39:51;;;;;;;3.88;2.67;;;;;;;-14.60;71.98;100105.50;4647698;29;20056;-60
2023/01/31 08:42:22;;;;;;;63.72;18.27;;;;;;;-14.81;72.07;100090.50;4646320;29;20456;-61
2023/01/31 08:44:55;;;;;;;44.85;15.05;;;;;;;-14.95;72.23;100108.56;4662929;29;20071;-60
2023/01/31 08:47:27;;;;;;;61.08;16.63;;;;;;;-15.29;72.29;100103.31;4662371;29;20063;-60
2023/01/31 08:50:01;;;;;;;32.83;10.57;;;;;;;-15.45;73.71;100105.28;4832153;28;20050;-62
2023/01/31 08:52:34;;;;;;;11.43;5.32;;;;;;;-15.51;74.34;100102.28;4887108;28;20058;-61
2023/01/31 08:55:07;;;;;;;4.22;3.13;;;;;;;-15.51;74.95;100102.28;4904039;28;20052;-61
2023/01/31 08:57:38;;;;;;;12.40;3.75;;;;;;;-15.56;75.73;100106.03;4909543;28;20056;-60
2023/01/31 09:00:26;;;;;;;5.75;3.58;;;;;;;-15.61;76.04;100114.78;4891773;28;20053;-61
2023/01/31 09:03:03;;;;;;;9.75;4.03;;;;;;;-15.66;76.10;100117.75;4902916;28;20141;-60
2023/01/31 09:05:36;;;;;;;8.73;4.07;;;;;;;-15.70;76.09;100114.91;4892959;28;20063;-60
2023/01/31 09:08:12;;;;;;;5.97;3.47;;;;;;;-15.72;76.28;100117.28;4912908;28;20052;-60
2023/01/31 09:10:54;;;;;;;4.80;3.22;;;;;;;-15.87;76.23;100103.47;4903855;28;20124;-61
2023/01/31 09:13:45;;;;;;;6.03;4.25;;;;;;;-15.99;76.24;100099.94;4893517;28;20044;-59
2023/01/31 09:16:23;;;;;;;5.57;3.35;;;;;;;-15.94;76.58;100123.72;4883249;28;20136;-61
2023/01/31 09:18:56;;;;;;;5.28;3.35;;;;;;;-16.48;76.96;100054.06;4912857;28;20052;-60
2023/01/31 09:21:29;;;;;;;6.13;3.42;;;;;;;-16.19;76.90;100124.13;4912115;28;20938;-59
2023/01/31 09:24:03;;;;;;;8.05;4.68;;;;;;;-16.28;77.08;100129.94;4905916;28;20067;-58
2023/01/31 09:26:36;;;;;;;10.32;5.00;;;;;;;-16.21;77.09;100127.25;4920808;28;20054;-58
2023/01/31 09:29:07;;;;;;;5.03;3.83;;;;;;;-16.24;76.97;100122.84;4900449;28;21016;-58
2023/01/31 09:31:37;;;;;;;6.25;4.13;;;;;;;-16.28;76.78;100125.81;4915338;28;20639;-57
2023/01/31 09:34:09;;;;;;;6.78;3.58;;;;;;;-16.25;76.56;100126.06;4918456;28;20060;-58
2023/01/31 09:36:43;;;;;;;6.95;3.55;;;;;;;-16.34;76.29;100105.28;4914663;28;20067;-58
2023/01/31 09:39:15;;;;;;;21.55;7.50;;;;;;;-16.40;76.25;100099.75;4900654;28;20626;-58
2023/01/31 09:41:50;;;;;;;75.88;21.95;;;;;;;-16.78;76.06;100057.31;4912581;28;20060;-58
2023/01/31 09:44:25;;;;;;;58.58;18.33;;;;;;;-16.53;75.91;100133.69;4908711;28;20056;-59
2023/01/31 09:47:00;;;;;;;11.57;5.72;;;;;;;-16.73;75.94;100113.56;4906409;28;20159;-57
2023/01/31 09:49:40;;;;;;;5.32;3.70;;;;;;;-16.71;76.50;100124.56;4911214;28;21460;-56
2023/01/31 09:52:11;;;;;;;6.60;3.55;;;;;;;-16.77;77.10;100121.50;4900837;28;20117;-58
2023/01/31 09:54:42;;;;;;;12.60;3.85;;;;;;;-16.73;77.35;100133.56;4902601;28;20057;-58
2023/01/31 09:57:39;;;;;;;7.13;3.80;;;;;;;-16.66;78.29;100114.97;4910733;28;20056;-57
2023/01/31 10:00:20;;;;;;;7.43;3.67;;;;;;;-16.51;78.17;100121.31;4912266;28;20047;-57
2023/01/31 10:03:04;;;;;;;6.22;3.38;;;;;;;-16.59;78.16;100118.16;4898604;28;20118;-59
2023/01/31 10:05:43;;;;;;;7.78;3.65;;;;;;;-16.52;78.30;100117.94;4900610;28;20052;-58
2023/01/31 10:08:20;;;;;;;7.43;4.22;;;;;;;-16.45;78.16;100136.84;4900958;28;20080;-57
2023/01/31 10:10:55;;;;;;;4.70;3.38;;;;;;;-16.55;78.18;100135.16;4908369;28;20110;-58
2023/01/31 10:13:34;;;;;;;6.55;3.78;;;;;;;-16.60;78.47;100133.00;4910534;28;20179;-57
2023/01/31 10:16:15;;;;;;;6.38;3.63;;;;;;;-16.61;78.28;100134.63;4900457;28;20834;-57
2023/01/31 10:18:54;;;;;;;6.32;3.65;;;;;;;-16.86;78.42;100080.78;4905113;28;20144;-58
2023/01/31 10:21:34;;;;;;;10.35;4.40;;;;;;;-16.44;78.52;100137.75;4900832;28;20052;-58
2023/01/31 10:24:14;;;;;;;7.65;4.03;;;;;;;-16.57;78.12;100121.69;4901002;28;20056;-58
2023/01/31 10:26:47;;;;;;;5.70;3.90;;;;;;;-16.63;78.23;100135.25;4910701;28;20068;-59
2023/01/31 10:29:56;;;;;;;5.43;4.30;;;;;;;-16.68;78.15;100146.47;4899527;28;20052;-57
2023/01/31 10:32:41;;;;;;;7.53;4.85;;;;;;;-16.78;78.13;100118.19;4889736;28;20070;-59
2023/01/31 10:35:17;;;;;;;19.10;7.32;;;;;;;-16.62;78.22;100150.41;4906418;28;20049;-59
2023/01/31 10:37:58;;;;;;;90.28;28.60;;;;;;;-17.00;77.69;100080.41;4902790;28;20090;-58
2023/01/31 10:41:15;;;;;;;102.18;33.60;;;;;;;-16.61;77.52;100148.78;4905620;28;20047;-58
2023/01/31 10:44:00;;;;;;;68.72;23.00;;;;;;;-16.55;77.67;100135.16;4836959;28;20046;-59
2023/01/31 10:46:50;;;;;;;28.65;9.77;;;;;;;-16.74;77.50;100102.69;4835217;28;20082;-56
2023/01/31 10:49:28;;;;;;;23.10;8.32;;;;;;;-16.64;77.23;100091.88;4839547;28;20054;-59
2023/01/31 10:52:19;;;;;;;15.20;5.82;;;;;;;-16.38;76.68;100139.16;4836846;28;20057;-60
2023/01/31 10:55:24;;;;;;;43.88;12.35;;;;;;;-16.50;75.93;100132.19;4828492;28;20059;-59
2023/01/31 10:58:24;;;;;;;;;;;;;;;-16.42;75.89;100154.66;4850049;28;21451;-59
2023/01/31 11:04:26;;;;;;;199.63;42.85;;;;;;;-16.57;75.55;100156.69;4818327;28;20127;-59
2023/01/31 11:07:20;;;;;;;202.40;45.97;;;;;;;-16.59;75.39;100168.16;4828902;28;20080;-59
2023/01/31 11:09:59;;;;;;;139.90;35.00;;;;;;;-16.54;74.89;100171.94;4830025;28;20064;-58
2023/01/31 11:12:44;;;;;;;97.45;24.65;;;;;;;-16.71;75.22;100112.06;4842160;28;20272;-59
2023/01/31 11:15:19;;;;;;;86.90;22.48;;;;;;;-16.41;74.84;100168.03;4821684;28;20053;-58
2023/01/31 11:17:51;;;;;;;63.88;17.55;;;;;;;-16.42;74.82;100167.16;4841939;28;20064;-59
2023/01/31 11:20:29;;;;;;;19.95;8.82;;;;;;;-16.25;75.59;100151.09;4900230;28;20522;-59
2023/01/31 11:23:02;;;;;;;18.35;8.60;;;;;;;-16.12;75.67;100156.44;4914864;28;20078;-59
2023/01/31 11:25:36;;;;;;;27.92;9.68;;;;;;;-16.03;75.82;100147.97;4904295;28;20052;-59
2023/01/31 11:28:21;;;;;;;33.13;12.30;;;;;;;-16.23;75.43;100134.59;4915052;28;20048;-59
2023/01/31 11:30:57;;;;;;;46.55;14.63;;;;;;;-16.61;74.86;100089.63;4910069;28;20061;-59
2023/01/31 11:33:44;;;;;;;43.78;14.63;;;;;;;-16.34;74.63;100151.19;4915326;28;20062;-59
2023/01/31 11:36:21;;;;;;;42.67;13.35;;;;;;;-16.31;74.60;100155.59;4905565;28;20055;-59
2023/01/31 11:38:52;;;;;;;44.35;13.27;;;;;;;-16.41;74.08;100168.03;4907742;28;20088;-58
2023/01/31 11:41:35;;;;;;;33.03;11.80;;;;;;;-16.39;74.07;100166.53;4914664;28;20696;-58
2023/01/31 11:44:24;;;;;;;19.70;7.03;;;;;;;-16.35;73.92;100163.56;4905027;28;20171;-58
2023/01/31 11:46:57;;;;;;;22.63;8.63;;;;;;;-16.76;73.21;100128.28;4904907;28;20052;-57
2023/01/31 11:49:34;;;;;;;25.30;8.52;;;;;;;-16.87;73.48;100097.38;4917043;28;20067;-58
2023/01/31 11:52:14;;;;;;;47.10;13.68;;;;;;;-16.30;74.30;100162.31;4907518;28;20067;-59
2023/01/31 11:54:47;;;;;;;;;;;;;;;-16.38;74.21;100168.28;4909336;28;20057;-59
2023/01/31 11:57:24;;;;;;;52.05;11.95;;;;;;;-16.72;73.12;100155.34;4918985;28;19928;-59
2023/01/31 12:00:04;;;;;;;26.50;9.23;;;;;;;-16.83;72.75;100163.50;4907683;28;20056;-59
2023/01/31 12:02:40;;;;;;;25.83;8.82;;;;;;;-16.77;72.64;100164.00;4906394;28;20055;-59
2023/01/31 12:05:13;;;;;;;15.43;7.00;;;;;;;-16.81;72.96;100164.53;4916971;28;20895;-58
2023/01/31 12:07:46;;;;;;;17.40;6.60;;;;;;;-16.72;73.42;100167.81;4918535;28;20059;-60
2023/01/31 12:10:46;;;;;;;19.85;6.78;;;;;;;-16.61;73.62;100177.16;4920293;28;20055;-58
2023/01/31 12:14:07;;;;;;;16.55;6.43;;;;;;;-16.59;72.81;100173.16;4895248;28;20464;-60
2023/01/31 12:16:39;;;;;;;20.27;7.63;;;;;;;-16.66;72.36;100160.84;4915592;28;20052;-60
2023/01/31 12:19:24;;;;;;;16.23;7.22;;;;;;;-16.58;72.17;100169.91;4927408;28;22480;-59
2023/01/31 12:22:07;;;;;;;17.10;7.18;;;;;;;-16.76;71.17;100173.28;4921801;28;20549;-59
2023/01/31 12:24:49;;;;;;;22.58;8.40;;;;;;;-16.97;70.75;100179.75;4922073;28;20056;-59
2023/01/31 12:27:36;;;;;;;23.85;8.90;;;;;;;-17.27;70.41;100180.34;4922348;28;20048;-58